Terminal Aerodrome Forecast
Issued by NWS Sterling, VA

Current Version | Previous Version | Graphics & Text | Print | Product List | Glossary On
Versions: 1 2 3 4 5 6 7 8 9 10 11 12 13 14 15 16 17 18 19 20 21 22 23 24 25 26 27 28 29 30
071
FTUS41 KLWX 301736
TAFIAD
TAF
KIAD 301736Z 3018/3124 14007KT P6SM SCT045 OVC100
     FM310300 14008KT P6SM -SHRA SCT030 OVC060
     FM311100 12009KT 2SM RA BKN008 OVC025
     FM311700 14009KT 4SM SHRA BKN010 OVC020
     FM312000 17009KT 5SM SHRA SCT020 OVC025
     FM312200 21006KT 4SM SHRA SCT020 OVC030=

USA.gov is the U.S. government's official web portal to all federal, state and local government web resources and services.